createdAt,value
2019-01-15T00:06:20.886Z,98433.98
2019-01-15T00:08:57.354Z,98424.10
2019-01-15T00:11:27.596Z,98433.84
2019-01-15T00:13:57.921Z,98426.80
2019-01-15T00:16:28.185Z,98435.66
2019-01-15T00:18:58.449Z,98431.02
2019-01-15T00:21:47.892Z,98433.84
2019-01-15T00:24:18.087Z,98432.50
2019-01-15T00:26:48.375Z,98446.93
2019-01-15T00:29:18.568Z,98442.05
2019-01-15T00:31:48.758Z,98446.02
2019-01-15T00:34:18.953Z,98440.66
2019-01-15T00:36:49.195Z,98446.36
2019-01-15T00:39:19.404Z,98449.35
2019-01-15T00:41:49.598Z,98448.21
2019-01-15T00:44:19.759Z,98453.56
2019-01-15T00:46:50.230Z,98466.20
2019-01-15T00:49:20.508Z,98469.23
2019-01-15T00:51:50.732Z,98465.69
2019-01-15T00:54:20.918Z,98475.46
2019-01-15T00:56:51.083Z,98466.64
2019-01-15T00:59:22.194Z,98458.93
2019-01-15T01:02:04.293Z,98447.59
2019-01-15T01:04:34.489Z,98452.28
2019-01-15T01:07:04.906Z,98431.75
2019-01-15T01:09:35.097Z,98431.80
2019-01-15T01:14:54.740Z,98474.02
2019-01-15T01:17:24.927Z,98484.36
2019-01-15T01:19:55.152Z,98498.25
2019-01-15T01:22:25.343Z,98485.85
2019-01-15T01:24:55.567Z,98483.61
2019-01-15T01:27:45.149Z,98482.73
2019-01-15T01:30:34.420Z,98473.28
2019-01-15T01:33:04.753Z,98476.89
2019-01-15T01:35:34.981Z,98473.02
2019-01-15T01:38:05.234Z,98476.94
2019-01-15T01:40:35.438Z,98488.04
2019-01-15T01:43:05.712Z,98493.23
2019-01-15T01:45:35.933Z,98492.80
2019-01-15T01:48:06.137Z,98494.23
2019-01-15T01:50:36.365Z,98475.25
2019-01-15T01:53:26.000Z,98478.67
2019-01-15T01:55:56.170Z,98482.34
2019-01-15T01:58:26.434Z,98475.33
2019-01-15T02:00:56.651Z,98466.25
2019-01-15T02:06:07.345Z,98462.23
2019-01-15T02:08:37.488Z,98466.75
2019-01-15T02:11:07.677Z,98485.66
2019-01-15T02:13:37.914Z,98476.97
2019-01-15T02:16:08.526Z,98467.92
2019-01-15T02:18:38.739Z,98460.58
2019-01-15T02:21:08.969Z,98469.77
2019-01-15T02:26:28.332Z,98474.28
2019-01-15T02:28:58.673Z,98473.52
2019-01-15T02:31:28.891Z,98478.50
2019-01-15T02:34:18.206Z,98480.87
2019-01-15T02:36:48.393Z,98489.05
2019-01-15T02:39:18.947Z,98487.70
2019-01-15T02:41:49.163Z,98486.69
2019-01-15T02:47:28.071Z,98496.30
2019-01-15T02:53:01.831Z,98502.52
2019-01-15T02:55:32.042Z,98494.44
2019-01-15T02:58:12.646Z,98494.18
2019-01-15T03:00:42.901Z,98493.89
2019-01-15T03:03:13.099Z,98495.70
2019-01-15T03:05:57.692Z,98507.27
2019-01-15T03:08:27.965Z,98513.60
2019-01-15T03:10:58.367Z,98514.11
2019-01-15T03:13:28.577Z,98507.89
2019-01-15T03:15:59.001Z,98522.30
2019-01-15T03:18:29.179Z,98514.44
2019-01-15T03:20:59.502Z,98514.16
2019-01-15T03:23:29.729Z,98509.53
2019-01-15T03:26:00.033Z,98533.32
2019-01-15T03:28:30.207Z,98525.25
2019-01-15T03:31:00.597Z,98529.17
2019-01-15T03:33:32.483Z,98542.48
2019-01-15T03:36:02.655Z,98521.64
2019-01-15T03:38:32.891Z,98536.59
2019-01-15T03:41:03.168Z,98537.06
2019-01-15T03:43:33.397Z,98536.30
2019-01-15T03:48:58.458Z,98530.63
2019-01-15T03:51:30.447Z,98538.63
2019-01-15T03:54:19.763Z,98529.75
2019-01-15T03:56:49.971Z,98530.27
2019-01-15T03:59:20.140Z,98538.45
2019-01-15T04:01:50.352Z,98544.45
2019-01-15T04:04:20.660Z,98544.92
2019-01-15T04:06:50.974Z,98551.19
2019-01-15T04:09:21.247Z,98551.52
2019-01-15T04:11:51.473Z,98549.98
2019-01-15T04:14:21.723Z,98561.19
2019-01-15T04:16:52.018Z,98554.20
2019-01-15T04:19:22.222Z,98558.20
2019-01-15T04:22:11.828Z,98561.77
2019-01-15T04:24:42.065Z,98559.16
2019-01-15T04:27:12.285Z,98561.52
2019-01-15T04:32:58.196Z,98571.31
2019-01-15T04:35:28.532Z,98565.23
2019-01-15T04:37:58.843Z,98559.70
2019-01-15T04:40:29.050Z,98575.16
2019-01-15T04:42:59.290Z,98572.33
2019-01-15T04:45:29.695Z,98568.69
2019-01-15T04:47:59.987Z,98572.33
2019-01-15T04:50:30.185Z,98578.59
2019-01-15T04:53:02.428Z,98574.47
2019-01-15T04:55:32.860Z,98572.11
2019-01-15T04:58:03.052Z,98580.73
2019-01-15T05:00:33.230Z,98584.45
2019-01-15T05:06:13.938Z,98594.20
2019-01-15T05:08:55.977Z,98598.53
2019-01-15T05:11:26.193Z,98596.42
2019-01-15T05:13:56.378Z,98599.59
2019-01-15T05:16:26.636Z,98584.19
2019-01-15T05:24:44.979Z,98598.78
2019-01-15T05:27:23.097Z,98600.94
2019-01-15T05:33:07.319Z,98607.19
2019-01-15T05:35:37.560Z,98603.19
2019-01-15T05:38:14.142Z,98600.78
2019-01-15T05:40:44.296Z,98598.16
2019-01-15T05:43:14.532Z,98601.66
2019-01-15T05:51:31.127Z,98598.16
2019-01-15T05:54:03.219Z,98592.56
2019-01-15T05:56:33.451Z,98592.34
2019-01-15T05:59:14.607Z,98601.63
2019-01-15T06:01:44.966Z,98599.43
2019-01-15T06:04:15.223Z,98608.50
2019-01-15T06:06:51.402Z,98599.98
2019-01-15T06:09:33.448Z,98603.40
2019-01-15T06:12:03.717Z,98607.34
2019-01-15T06:14:34.019Z,98601.91
2019-01-15T06:17:04.348Z,98609.27
2019-01-15T06:19:34.546Z,98614.47
2019-01-15T06:22:04.983Z,98612.94
2019-01-15T06:27:24.436Z,98609.80
2019-01-15T06:29:54.611Z,98609.89
2019-01-15T06:32:25.291Z,98615.67
2019-01-15T06:35:14.551Z,98620.87
2019-01-15T06:37:45.047Z,98622.15
2019-01-15T06:42:55.953Z,98623.39
2019-01-15T06:45:31.633Z,98620.48
2019-01-15T06:48:07.352Z,98615.82
2019-01-15T06:50:37.539Z,98615.89
2019-01-15T06:53:07.736Z,98626.30
2019-01-15T06:55:38.107Z,98619.79
2019-01-15T06:58:08.419Z,98628.67
2019-01-15T07:00:38.607Z,98628.16
2019-01-15T07:03:08.811Z,98621.72
2019-01-15T07:05:39.008Z,98631.77
2019-01-15T07:08:09.271Z,98626.67
2019-01-15T07:13:48.086Z,98634.78
2019-01-15T07:16:41.733Z,98657.84
2019-01-15T07:19:11.973Z,98653.36
2019-01-15T07:21:47.634Z,98641.34
2019-01-15T07:24:18.033Z,98646.36
2019-01-15T07:26:48.260Z,98641.30
2019-01-15T07:29:18.605Z,98637.16
2019-01-15T07:31:48.806Z,98640.58
2019-01-15T07:34:18.977Z,98651.64
2019-01-15T07:36:49.222Z,98630.64
2019-01-15T07:39:19.414Z,98649.75
2019-01-15T07:41:49.621Z,98635.41
2019-01-15T07:44:19.810Z,98644.00
2019-01-15T07:46:50.147Z,98625.72
2019-01-15T07:49:20.346Z,98624.12
2019-01-15T07:51:50.570Z,98631.80
2019-01-15T07:54:20.791Z,98637.33
2019-01-15T07:56:50.995Z,98639.66
2019-01-15T07:59:21.218Z,98644.11
2019-01-15T08:02:31.495Z,98655.28
2019-01-15T08:05:02.339Z,98643.38
2019-01-15T08:07:32.597Z,98645.16
2019-01-15T08:10:02.950Z,98647.89
2019-01-15T08:12:33.449Z,98644.05
2019-01-15T08:18:09.897Z,98630.56
2019-01-15T08:20:40.059Z,98639.27
2019-01-15T08:23:10.455Z,98638.14
2019-01-15T08:25:40.740Z,98648.28
2019-01-15T08:28:11.259Z,98649.53
2019-01-15T08:30:41.536Z,98646.66
2019-01-15T08:33:11.822Z,98628.60
2019-01-15T08:35:42.053Z,98634.33
2019-01-15T08:38:12.243Z,98622.16
2019-01-15T08:40:42.512Z,98620.21
2019-01-15T08:43:12.732Z,98626.77
2019-01-15T08:45:43.565Z,98620.73
2019-01-15T08:51:20.383Z,98617.41
2019-01-15T08:56:43.802Z,98630.07
2019-01-15T08:59:14.101Z,98623.30
2019-01-15T09:01:45.679Z,98604.61
2019-01-15T09:04:15.902Z,98627.75
2019-01-15T09:06:46.120Z,98617.31
2019-01-15T09:12:13.848Z,98620.69
2019-01-15T09:14:44.299Z,98615.63
2019-01-15T09:17:14.487Z,98617.53
2019-01-15T09:19:44.689Z,98620.02
2019-01-15T09:22:14.900Z,98626.79
2019-01-15T09:24:45.229Z,98616.27
2019-01-15T09:27:15.402Z,98627.00
2019-01-15T09:29:59.865Z,98611.98
2019-01-15T09:32:36.904Z,98606.00
2019-01-15T09:35:07.136Z,98608.88
2019-01-15T09:40:39.768Z,98597.00
2019-01-15T09:43:09.991Z,98595.94
2019-01-15T09:45:40.339Z,98610.19
2019-01-15T09:53:44.616Z,98592.44
2019-01-15T09:56:14.919Z,98580.83
2019-01-15T09:58:45.176Z,98581.20
2019-01-15T10:01:15.364Z,98572.19
2019-01-15T10:03:45.606Z,98560.28
2019-01-15T10:06:15.840Z,98562.66
2019-01-15T10:08:46.126Z,98551.92
2019-01-15T10:11:16.636Z,98559.76
2019-01-15T10:13:46.795Z,98544.03
2019-01-15T10:16:17.298Z,98547.50
2019-01-15T10:18:47.448Z,98556.66
2019-01-15T10:21:17.627Z,98553.87
2019-01-15T10:23:48.160Z,98560.10
2019-01-15T10:29:05.912Z,98546.69
2019-01-15T10:32:14.306Z,98549.53
2019-01-15T10:34:44.265Z,98554.01
2019-01-15T10:37:14.608Z,98558.74
2019-01-15T10:39:45.179Z,98550.48
2019-01-15T10:42:15.374Z,98544.73
2019-01-15T10:44:48.745Z,98542.89
2019-01-15T10:47:39.950Z,98528.73
2019-01-15T10:53:13.010Z,98532.97
2019-01-15T10:55:43.184Z,98532.11
2019-01-15T11:04:01.137Z,98534.92
2019-01-15T11:06:31.358Z,98528.88
2019-01-15T11:09:01.598Z,98526.52
2019-01-15T11:11:38.038Z,98540.63
2019-01-15T11:16:56.765Z,98530.05
2019-01-15T11:22:42.183Z,98538.21
2019-01-15T11:25:18.608Z,98513.34
2019-01-15T11:27:48.802Z,98511.24
2019-01-15T11:30:19.405Z,98510.95
2019-01-15T11:35:36.586Z,98503.95
2019-01-15T11:38:07.201Z,98509.45
2019-01-15T11:43:39.461Z,98485.70
2019-01-15T11:51:48.324Z,98484.43
2019-01-15T11:54:23.052Z,98483.89
2019-01-15T11:56:53.498Z,98498.52
2019-01-15T12:02:44.073Z,98488.98
2019-01-15T12:05:47.727Z,98488.13
2019-01-15T12:08:37.003Z,98499.69
2019-01-15T12:11:33.090Z,98488.16
2019-01-15T12:14:22.306Z,98501.13
2019-01-15T12:17:11.485Z,98492.52
2019-01-15T12:23:06.881Z,98487.76
2019-01-15T12:25:56.200Z,98478.51
2019-01-15T12:28:45.408Z,98481.95
2019-01-15T12:31:35.080Z,98487.00
2019-01-15T12:34:24.269Z,98474.69
2019-01-15T12:37:13.463Z,98482.24
2019-01-15T12:43:11.431Z,98474.70
2019-01-15T12:46:00.849Z,98473.64
2019-01-15T12:57:24.035Z,98470.20
2019-01-15T13:07:00.870Z,98476.43
2019-01-15T13:12:49.095Z,98462.78
2019-01-15T13:15:39.320Z,98457.97
2019-01-15T13:18:30.480Z,98461.47
2019-01-15T13:21:23.328Z,98460.84
2019-01-15T13:27:12.024Z,98452.88
2019-01-15T13:29:52.729Z,98461.09
2019-01-15T13:32:42.542Z,98464.17
2019-01-15T13:35:21.854Z,98466.53
2019-01-15T13:38:11.263Z,98466.09
2019-01-15T13:41:00.729Z,98461.53
2019-01-15T13:43:49.963Z,98467.63
2019-01-15T13:46:44.399Z,98464.20
2019-01-15T13:49:33.663Z,98464.78
2019-01-15T13:52:23.171Z,98459.22
2019-01-15T13:55:12.331Z,98459.48
2019-01-15T13:58:01.491Z,98460.50
2019-01-15T14:00:47.925Z,98459.72
2019-01-15T14:03:37.278Z,98449.56
2019-01-15T14:06:26.420Z,98457.44
2019-01-15T14:09:15.709Z,98460.11
2019-01-15T14:11:57.582Z,98457.67
2019-01-15T14:14:46.681Z,98450.61
2019-01-15T14:17:36.117Z,98446.96
2019-01-15T14:20:26.847Z,98430.59
2019-01-15T14:23:31.114Z,98430.91
2019-01-15T14:26:28.075Z,98422.55
2019-01-15T14:29:17.700Z,98421.19
2019-01-15T14:32:19.019Z,98435.64
2019-01-15T14:35:08.209Z,98420.36
2019-01-15T14:37:57.582Z,98414.36
2019-01-15T14:40:46.753Z,98410.92
2019-01-15T14:46:17.526Z,98394.66
2019-01-15T14:49:19.768Z,98401.81
2019-01-15T14:55:05.567Z,98390.02
2019-01-15T14:57:57.188Z,98391.79
2019-01-15T15:00:46.373Z,98386.09
2019-01-15T15:03:36.136Z,98386.58
2019-01-15T15:06:25.878Z,98389.02
2019-01-15T15:09:15.455Z,98392.39
2019-01-15T15:11:53.246Z,98391.65
2019-01-15T15:14:42.433Z,98382.14
2019-01-15T15:17:31.953Z,98380.60
2019-01-15T15:20:21.306Z,98390.32
2019-01-15T15:23:10.466Z,98387.18
2019-01-15T15:26:12.755Z,98391.62
2019-01-15T15:29:02.505Z,98387.95
2019-01-15T15:31:52.469Z,98394.28
2019-01-15T15:34:41.886Z,98393.77
2019-01-15T15:37:31.043Z,98388.24
2019-01-15T15:40:20.738Z,98396.12
2019-01-15T15:43:09.850Z,98398.22
2019-01-15T15:45:59.122Z,98399.25
2019-01-15T15:48:48.361Z,98393.48
2019-01-15T15:51:37.766Z,98387.73
2019-01-15T15:54:27.313Z,98398.17
2019-01-15T15:57:19.599Z,98379.77
2019-01-15T16:00:08.794Z,98377.21
2019-01-15T16:03:17.456Z,98390.52
2019-01-15T16:06:06.867Z,98394.20
2019-01-15T16:08:56.364Z,98387.28
2019-01-15T16:11:45.843Z,98384.98
2019-01-15T16:14:35.269Z,98386.28
2019-01-15T16:23:30.477Z,98388.63
2019-01-15T16:26:37.365Z,98376.08
2019-01-15T16:29:26.500Z,98387.11
2019-01-15T16:32:04.161Z,98390.25
2019-01-15T16:34:51.073Z,98384.55
2019-01-15T16:37:40.221Z,98386.38
2019-01-15T16:40:48.639Z,98378.76
2019-01-15T16:43:40.036Z,98375.37
2019-01-15T16:46:29.473Z,98377.73
2019-01-15T16:49:19.514Z,98372.99
2019-01-15T16:52:08.677Z,98360.16
2019-01-15T16:54:57.795Z,98358.84
2019-01-15T16:57:46.981Z,98352.27
2019-01-15T17:03:22.155Z,98349.66
2019-01-15T17:06:11.296Z,98343.94
2019-01-15T17:09:00.557Z,98351.27
2019-01-15T17:11:49.735Z,98352.89
2019-01-15T17:14:39.208Z,98344.98
2019-01-15T17:17:28.371Z,98341.33
2019-01-15T17:20:17.534Z,98343.42
2019-01-15T17:22:59.194Z,98345.84
2019-01-15T17:25:48.331Z,98337.69
2019-01-15T17:28:53.455Z,98337.69
2019-01-15T17:31:44.241Z,98338.77
2019-01-15T17:34:33.400Z,98335.09
2019-01-15T17:37:23.414Z,98331.41
2019-01-15T17:40:12.539Z,98343.25
2019-01-15T17:43:01.668Z,98344.56
2019-01-15T17:45:50.831Z,98341.41
2019-01-15T17:48:40.519Z,98346.15
2019-01-15T17:54:36.190Z,98340.66
2019-01-15T17:57:34.165Z,98357.20
2019-01-15T18:03:35.278Z,98358.78
2019-01-15T18:06:24.812Z,98350.63
2019-01-15T18:09:14.032Z,98349.34
2019-01-15T18:12:03.134Z,98346.98
2019-01-15T18:15:00.965Z,98338.05
2019-01-15T18:17:50.368Z,98329.89
2019-01-15T18:20:31.119Z,98324.64
2019-01-15T18:23:20.245Z,98328.33
2019-01-15T18:26:09.395Z,98319.63
2019-01-15T18:29:11.557Z,98321.75
2019-01-15T18:32:01.209Z,98325.18
2019-01-15T18:34:43.337Z,98331.22
2019-01-15T18:37:32.538Z,98319.66
2019-01-15T18:40:21.765Z,98328.08
2019-01-15T18:43:11.272Z,98324.13
2019-01-15T18:48:47.308Z,98330.17
2019-01-15T18:51:36.617Z,98329.38
2019-01-15T18:54:26.270Z,98319.66
2019-01-15T18:57:17.057Z,98324.67
2019-01-15T19:00:06.395Z,98328.36
2019-01-15T19:03:12.045Z,98312.05
2019-01-15T19:05:59.654Z,98319.16
2019-01-15T19:12:18.988Z,98331.23
2019-01-15T19:15:08.338Z,98318.89
2019-01-15T19:21:22.290Z,98348.06
2019-01-15T19:24:11.526Z,98301.00
2019-01-15T19:27:01.125Z,98305.47
2019-01-15T19:29:50.425Z,98309.39
2019-01-15T19:32:51.413Z,98301.25
2019-01-15T19:35:46.459Z,98311.25
2019-01-15T19:38:35.730Z,98308.63
2019-01-15T19:41:25.173Z,98319.14
2019-01-15T19:44:20.285Z,98321.22
2019-01-15T19:46:59.626Z,98308.34
2019-01-15T19:49:41.807Z,98317.03
2019-01-15T19:52:31.032Z,98319.66
2019-01-15T19:58:23.671Z,98308.63
2019-01-15T20:01:12.960Z,98327.28
2019-01-15T20:04:02.154Z,98320.19
2019-01-15T20:06:51.394Z,98315.69
2019-01-15T20:09:40.533Z,98327.28
2019-01-15T20:12:32.637Z,98331.48
2019-01-15T20:15:21.947Z,98323.06
2019-01-15T20:18:11.166Z,98334.66
2019-01-15T20:24:19.749Z,98342.52
2019-01-15T20:27:08.918Z,98341.48
2019-01-15T20:29:51.754Z,98335.94
2019-01-15T20:33:00.183Z,98344.08
2019-01-15T20:35:51.369Z,98355.41
2019-01-15T20:38:40.859Z,98355.16
2019-01-15T20:41:22.808Z,98358.03
2019-01-15T20:44:12.211Z,98349.62
2019-01-15T20:47:03.420Z,98356.44
2019-01-15T20:49:52.799Z,98357.52
2019-01-15T20:52:41.959Z,98359.34
2019-01-15T20:55:23.064Z,98362.50
2019-01-15T20:58:31.494Z,98367.48
2019-01-15T21:01:20.816Z,98356.16
2019-01-15T21:04:10.012Z,98367.21
2019-01-15T21:06:59.470Z,98371.16
2019-01-15T21:12:45.144Z,98368.23
2019-01-15T21:15:36.452Z,98361.41
2019-01-15T21:18:25.591Z,98360.62
2019-01-15T21:21:15.178Z,98362.41
2019-01-15T21:24:04.393Z,98367.44
2019-01-15T21:26:53.535Z,98360.05
2019-01-15T21:29:43.399Z,98363.20
2019-01-15T21:32:32.623Z,98358.16
2019-01-15T21:35:34.173Z,98356.30
2019-01-15T21:38:23.685Z,98358.16
2019-01-15T21:41:12.834Z,98355.52
2019-01-15T21:44:02.289Z,98354.70
2019-01-15T21:46:51.444Z,98357.63
2019-01-15T21:49:40.826Z,98354.72
2019-01-15T21:52:30.297Z,98356.84
2019-01-15T21:55:19.473Z,98355.81
2019-01-15T21:58:08.616Z,98357.64
2019-01-15T22:00:56.931Z,98350.55
2019-01-15T22:03:46.054Z,98362.66
2019-01-15T22:09:18.768Z,98358.73
2019-01-15T22:12:08.130Z,98361.87
2019-01-15T22:14:57.313Z,98359.48
2019-01-15T22:17:47.582Z,98356.09
2019-01-15T22:20:39.963Z,98359.26
2019-01-15T22:23:30.258Z,98355.82
2019-01-15T22:26:19.657Z,98355.29
2019-01-15T22:29:08.792Z,98349.28
2019-01-15T22:31:57.968Z,98367.20
2019-01-15T22:34:47.229Z,98360.61
2019-01-15T22:40:42.580Z,98344.81
2019-01-15T22:43:31.795Z,98353.76
2019-01-15T22:46:21.035Z,98360.90
2019-01-15T22:49:10.656Z,98362.73
2019-01-15T22:51:59.811Z,98358.00
2019-01-15T22:54:49.220Z,98362.22
2019-01-15T22:57:38.582Z,98365.36
2019-01-15T23:03:25.675Z,98364.06
2019-01-15T23:06:34.302Z,98372.75
2019-01-15T23:12:26.207Z,98376.70
2019-01-15T23:18:02.755Z,98378.31
2019-01-15T23:20:47.632Z,98377.25
2019-01-15T23:23:36.771Z,98378.31
2019-01-15T23:26:26.017Z,98379.11
2019-01-15T23:29:15.136Z,98367.78
2019-01-15T23:32:04.251Z,98370.41
2019-01-15T23:34:53.514Z,98368.06
2019-01-15T23:40:42.597Z,98367.52
2019-01-15T23:43:31.696Z,98366.20
2019-01-15T23:49:13.261Z,98371.47
2019-01-15T23:55:01.601Z,98369.09
2019-01-15T23:57:50.753Z,98360.68
